• Join FlightAware (Why Join?)
  • Login
  • US Flag 
05:10AM EDT


 

Airport Tracker/Info


-or-


 

Live Flight TrackerFlight Track Log ✈ SWA494 ✈ 16-Apr-2013 ✈ KHOU - KEWR

Flight Track Log - Related Links

Times and Time Zones

All times are in EDT time to prevent confusion due to time zone crossing. See the SWA494 flight status page for this flight to view local times or setup timezone preferences in your user account.

Time Position Orientation Groundspeed Altitude Reporting Facility
EDT Latitude Longitude Course Direction KTS MPH feet Rate Location/Type
06:54PM 29.6356 -95.2675 163° South 141 162 900  Level Houston Center
06:54PM 29.6203 -95.2622 163° South 160 184 1,500 2,700 Climbing Houston Center
06:55PM 29.5694 -95.2347 155° Southeast 220 253 4,500 3,060 Climbing Houston Center
06:56PM 29.5419 -95.2142 147° Southeast 247 284 6,100 4,080 Climbing Houston Center
06:56PM 29.5394 -95.1614 93° East 284 327 8,700 3,660 Climbing Houston Center
06:57PM 29.5469 -95.1286 75° East 289 333 9,900 2,700 Climbing Houston Center
06:58PM 29.5689 -95.0303 76° East 327 376 12,800 3,240 Climbing Houston Center
06:59PM 29.5978 -94.9011 76° East 349 402 16,700 3,360 Climbing Houston Center
07:00PM 29.6233 -94.7850 76° East 373 429 19,800 2,820 Climbing Houston Center
07:01PM 29.6500 -94.6628 76° East 392 451 22,600 2,400 Climbing Houston Center
07:02PM 29.6781 -94.5350 76° East 410 472 24,900 2,040 Climbing Houston Center
07:03PM 29.7069 -94.4003 76° East 429 494 26,900 1,980 Climbing Houston Center
07:04PM 29.7200 -94.2522 84° East 462 532 29,000 1,920 Climbing Houston Center
07:05PM 29.7286 -94.0706 87° East 478 550 30,900 1,740 Climbing Houston Center
07:06PM 29.7353 -93.9131 87° East 491 565 32,700 960 Climbing Houston Center
07:07PM 29.7431 -93.7514 87° East 506 582 33,000 120 Climbing Houston Center
07:08PM 29.7547 -93.5892 85° East 513 590 33,000 540 Level Houston Center
07:09PM 29.7936 -93.4317 74° East 516 594 34,200 1,500 Climbing Houston Center
07:10PM 29.8392 -93.2783 71° East 511 588 36,200 1,500 Climbing Houston Center
07:11PM 29.8858 -93.1108 72° East 509 586 37,300 1,320 Climbing Houston Center
07:12PM 29.9306 -92.9519 72° East 519 597 39,000 1,680 Climbing Houston Center
07:13PM 29.9836 -92.7672 72° East 513 590 40,800 960 Climbing Houston Center
07:14PM 30.0258 -92.6147 72° East 503 579 41,000 60 Climbing Houston Center
07:15PM 30.0675 -92.4639 72° East 500 575 41,000  Level Houston Center
07:16PM 30.1100 -92.3114 72° East 501 577 41,000  Level Houston Center
07:17PM 30.1506 -92.1603 73° East 496 571 41,000  Level Houston Center
07:18PM 30.2008 -91.9797 72° East 494 568 41,000  Level Houston Center
07:19PM 30.2419 -91.8283 73° East 496 571 41,000  Level Houston Center
07:20PM 30.2836 -91.6742 73° East 492 566 41,000  Level Houston Center
07:21PM 30.3258 -91.5217 72° East 495 570 41,000  Level Houston Center
07:23PM 30.3653 -91.3703 73° East 493 567 41,000  Level Houston Center
07:24PM 30.4050 -91.2181 73° East 494 568 41,000  Level Houston Center
07:25PM 30.4458 -91.0661 73° East 493 567 41,000  Level Houston Center
07:26PM 30.4942 -90.8836 73° East 495 570 41,000  Level Houston Center
07:27PM 30.5331 -90.7325 73° East 491 565 41,000  Level Houston Center
07:28PM 30.5733 -90.5794 73° East 494 568 41,000  Level Houston Center
07:29PM 30.6125 -90.4278 73° East 493 567 41,000  Level Houston Center
07:30PM 30.6517 -90.2758 73° East 490 564 41,000  Level Houston Center
07:31PM 30.6903 -90.1233 74° East 490 564 41,000  Level Houston Center
07:32PM 30.7428 -89.9764 67° East 487 560 41,000  Level Houston Center
07:33PM 30.8056 -89.8325 63° Northeast 493 567 41,000  Level Houston Center
07:34PM 30.8775 -89.6603 64° Northeast 491 565 41,000  Level Houston Center
07:35PM 30.9386 -89.5156 64° Northeast 494 568 41,000  Level Houston Center
07:36PM 30.9997 -89.3697 64° Northeast 498 573 41,000  Level Houston Center
07:37PM 31.0592 -89.2236 65° Northeast 500 575 41,000  Level Houston Center
07:38PM 31.1203 -89.0772 64° Northeast 501 577 41,000  Level Houston Center
07:39PM 31.1814 -88.9314 64° Northeast 499 574 41,000  Level Houston Center
07:40PM 31.2500 -88.7614 65° Northeast 498 573 41,000  Level Houston Center
07:41PM 31.3117 -88.6158 64° Northeast 496 571 41,000  Level Houston Center
07:42PM 31.3725 -88.4686 64° Northeast 496 571 41,000  Level Houston Center
07:43PM 31.4325 -88.3206 65° Northeast 497 572 41,000  Level Houston Center
07:44PM 31.4933 -88.1744 64° Northeast 497 572 41,000  Level Houston Center
07:45PM 31.5642 -87.9992 65° Northeast 494 568 41,000  Level Atlanta Center
07:46PM 31.6353 -87.8633 58° Northeast 494 568 41,000  Level Atlanta Center
07:47PM 31.7164 -87.7325 54° Northeast 489 563 41,000  Level Atlanta Center
07:48PM 31.7975 -87.6014 54° Northeast 489 563 41,000  Level Atlanta Center
07:49PM 31.8764 -87.4725 54° Northeast 489 563 41,000  Level Atlanta Center
07:50PM 31.9636 -87.3339 53° Northeast 489 563 41,000  Level Atlanta Center
07:51PM 32.0314 -87.2139 56° Northeast 483 556 41,000  Level Atlanta Center
07:52PM 32.1100 -87.0817 55° Northeast 483 556 41,000  Level Atlanta Center
07:53PM 32.1903 -86.9519 54° Northeast 488 562 41,000  Level Atlanta Center
07:54PM 32.2683 -86.8219 55° Northeast 488 562 41,000  Level Atlanta Center
07:55PM 32.3547 -86.6894 52° Northeast 488 562 41,000  Level Atlanta Center
07:56PM 32.4328 -86.5564 55° Northeast 488 562 41,000  Level Atlanta Center
07:57PM 32.5106 -86.4231 55° Northeast 488 562 41,000  Level Atlanta Center
07:58PM 32.5903 -86.2897 55° Northeast 488 562 41,000  Level Atlanta Center
07:59PM 32.6678 -86.1558 55° Northeast 488 562 41,000  Level Atlanta Center
08:00PM 32.7472 -86.0244 54° Northeast 488 562 41,000  Level Atlanta Center
08:01PM 32.8244 -85.8903 56° Northeast 488 562 41,000  Level Atlanta Center
08:02PM 32.9014 -85.7533 56° Northeast 488 562 41,000  Level Atlanta Center
08:03PM 32.9825 -85.6236 53° Northeast 488 562 41,000  Level Atlanta Center
08:04PM 33.0572 -85.4911 56° Northeast 488 562 41,000  Level Atlanta Center
08:05PM 33.1358 -85.3611 54° Northeast 482 555 41,000  Level Atlanta Center
08:06PM 33.2125 -85.2231 56° Northeast 488 562 41,000  Level Atlanta Center
08:07PM 33.2972 -85.0778 55° Northeast 488 562 41,000  Level Atlanta Center
08:08PM 33.3756 -84.9419 55° Northeast 488 562 41,000  Level Atlanta Center
08:09PM 33.4494 -84.8106 56° Northeast 488 562 41,000  Level Atlanta Center
08:10PM 33.5275 -84.6742 56° Northeast 488 562 41,000  Level Atlanta Center
08:11PM 33.5864 -84.5650 57° Northeast 488 562 41,000  Level Atlanta Center
08:12PM 33.6811 -84.4033 55° Northeast 488 562 41,000  Level Atlanta Center
08:13PM 33.7544 -84.2686 57° Northeast 488 562 41,000  Level Atlanta Center
08:14PM 33.8358 -84.1239 56° Northeast 501 577 41,000  Level Atlanta Center
08:15PM 33.9133 -83.9889 55° Northeast 501 577 41,000  Level Atlanta Center
08:16PM 33.9861 -83.8558 57° Northeast 494 568 41,000  Level Atlanta Center
08:17PM 34.0631 -83.7178 56° Northeast 488 562 41,000  Level Atlanta Center
08:18PM 34.1400 -83.5819 56° Northeast 488 562 41,000  Level Atlanta Center
08:19PM 34.2164 -83.4433 56° Northeast 488 562 41,000  Level Atlanta Center
08:20PM 34.2931 -83.3072 56° Northeast 488 562 41,000  Level Atlanta Center
08:21PM 34.3672 -83.1681 57° Northeast 493 567 41,000  Level Atlanta Center
08:22PM 34.4433 -83.0286 56° Northeast 488 562 41,000  Level Atlanta Center
08:23PM 34.5111 -82.9044 56° Northeast 496 571 41,000  Level Atlanta Center
08:24PM 34.5850 -82.7647 57° Northeast 489 563 41,000  Level Atlanta Center
08:25PM 34.6667 -82.6169 56° Northeast 490 564 41,000  Level Atlanta Center
08:26PM 34.7403 -82.4792 57° Northeast 485 558 41,000  Level Atlanta Center
08:27PM 34.8156 -82.3386 57° Northeast 490 564 41,000  Level Atlanta Center
08:28PM 34.8928 -82.1953 57° Northeast 487 560 41,000  Level Atlanta Center
08:29PM 34.9658 -82.0567 57° Northeast 487 560 41,000  Level Atlanta Center
08:30PM 35.0386 -81.9156 58° Northeast 487 560 41,000  Level Atlanta Center
08:31PM 35.1133 -81.7764 57° Northeast 487 560 41,000  Level Atlanta Center
08:32PM 35.1878 -81.6347 57° Northeast 487 560 41,000  Level Atlanta Center
08:33PM 35.2542 -81.5106 57° Northeast 487 560 41,000  Level Atlanta Center
08:34PM 35.3261 -81.3683 58° Northeast 492 566 41,000  Level Atlanta Center
08:35PM 35.3981 -81.2261 58° Northeast 492 566 41,000  Level Atlanta Center
08:36PM 35.4800 -81.0675 58° Northeast 492 566 41,000  Level Atlanta Center
08:37PM 35.5558 -80.9294 56° Northeast 492 566 41,000  Level Atlanta Center
08:38PM 35.6194 -80.8097 57° Northeast 480 552 41,000  Level Atlanta Center
08:39PM 35.6908 -80.6686 58° Northeast 475 547 41,000  Level Atlanta Center
08:40PM 35.7642 -80.5300 57° Northeast 480 552 41,000  Level Atlanta Center
08:42PM 35.9203 -80.2242 58° Northeast 476 548 41,000  Level Washington Center
08:43PM 35.9767 -80.1119 58° Northeast 482 555 41,000  Level Washington Center
08:44PM 36.0619 -79.9525 56° Northeast 475 547 41,000  Level Washington Center
08:45PM 36.1378 -79.8203 55° Northeast 470 541 41,000  Level Washington Center
08:46PM 36.2156 -79.6803 55° Northeast 478 550 41,000  Level Washington Center
08:47PM 36.2844 -79.5575 55° Northeast 478 550 41,000  Level Washington Center
08:48PM 36.3686 -79.4097 55° Northeast 478 550 41,000  Level Washington Center
08:49PM 36.4350 -79.2839 57° Northeast 478 550 41,000  Level Washington Center
08:50PM 36.5219 -79.1692 47° Northeast 472 543 41,000  Level Washington Center
08:51PM 36.6358 -79.0578 38° Northeast 455 524 41,000  Level Washington Center
08:52PM 36.7308 -78.9456 43° Northeast 460 529 41,000  Level Washington Center
08:53PM 36.8278 -78.8406 41° Northeast 460 529 41,000  Level Washington Center
08:54PM 36.9286 -78.7331 40° Northeast 460 529 41,000  Level Washington Center
08:55PM 37.0167 -78.6378 41° Northeast 455 524 41,000  Level Washington Center
08:56PM 37.1153 -78.5325 40° Northeast 455 524 41,000  Level Washington Center
08:57PM 37.2117 -78.4267 41° Northeast 455 524 41,000  Level Washington Center
08:58PM 37.3100 -78.3206 41° Northeast 455 524 41,000  Level Washington Center
08:59PM 37.4169 -78.2042 41° Northeast 455 524 41,000  Level Washington Center
09:00PM 37.5111 -78.0975 42° Northeast 450 518 41,000  Level Washington Center
09:01PM 37.6069 -77.9931 41° Northeast 450 518 41,000  Level Washington Center
09:02PM 37.7050 -77.8833 42° Northeast 450 518 41,000  Level Washington Center
09:03PM 37.8008 -77.7758 42° Northeast 455 524 41,000  Level Washington Center
09:04PM 37.8989 -77.6681 41° Northeast 455 524 41,000  Level Washington Center
09:05PM 37.9944 -77.5575 42° Northeast 455 524 41,000  Level Washington Center
09:06PM 38.0817 -77.4569 42° Northeast 455 524 41,000  Level Washington Center
09:07PM 38.1769 -77.3483 42° Northeast 455 524 41,000  Level Washington Center
09:08PM 38.2744 -77.2394 41° Northeast 455 524 41,000  Level Washington Center
09:09PM 38.3697 -77.1303 42° Northeast 455 524 41,000  Level Washington Center
09:10PM 38.4669 -77.0208 41° Northeast 455 524 41,000  Level Washington Center
09:11PM 38.5622 -76.9114 42° Northeast 455 524 41,000  Level Washington Center
09:12PM 38.6572 -76.8014 42° Northeast 455 524 41,000  Level Washington Center
09:13PM 38.7519 -76.6911 42° Northeast 455 524 41,000  Level Washington Center
09:14PM 38.8489 -76.5806 42° Northeast 455 524 41,000 -780 Level Washington Center
09:15PM 38.9519 -76.4644 41° Northeast 455 524 39,500 -2,400 Descending Washington Center
09:16PM 39.0339 -76.3667 43° Northeast 455 524 36,200 -3,360 Descending Washington Center
09:17PM 39.1303 -76.2553 42° Northeast 450 518 32,800 -3,900 Descending Washington Center
09:18PM 39.2289 -76.1436 41° Northeast 450 518 28,500 -2,880 Descending Washington Center
09:19PM 39.3231 -76.0317 43° Northeast 455 524 27,000 -780 Descending Washington Center
09:20PM 39.4194 -75.9167 43° Northeast 455 524 27,000  Level Washington Center
09:21PM 39.5175 -75.7986 43° Northeast 465 535 27,000  Level Washington Center
09:22PM 39.6136 -75.6858 42° Northeast 465 535 27,000 -780 Level Washington Center
09:23PM 39.7114 -75.5700 42° Northeast 465 535 25,500 -2,400 Descending Washington Center
09:24PM 39.8072 -75.4539 43° Northeast 465 535 22,200 -3,300 Descending Washington Center
09:25PM 39.9092 -75.3344 42° Northeast 460 529 19,000 -3,120 Descending Washington Center
09:26PM 39.9922 -75.2286 44° Northeast 442 509 16,000 -3,000 Descending Washington Center
09:27PM 40.0750 -75.1278 43° Northeast 419 482 13,000 -2,940 Descending Washington Center
09:28PM 40.1333 -75.0500 46° Northeast 405 466 11,000 -2,100 Descending New York TRACON
09:29PM 40.2000 -74.9667 44° Northeast 377 434 9,600 -1,560 Descending New York TRACON
09:30PM 40.2667 -74.8833 44° Northeast 366 421 8,100 -900 Descending New York TRACON
09:31PM 40.3333 -74.7833 49° Northeast 361 415 8,000 -360 Descending New York TRACON
09:32PM 40.4000 -74.7000 44° Northeast 313 360 7,400 -780 Descending New York TRACON
09:33PM 40.4833 -74.6500 25° Northeast 283 326 6,400 -720 Descending New York TRACON
09:34PM 40.5500 -74.6333 11° North 281 323 6,000 -240 Descending New York TRACON
09:35PM 40.6333 -74.6167 North 275 316 6,000  Level New York TRACON
09:36PM 40.7167 -74.5833 17° North 274 315 6,000  Level New York TRACON
09:37PM 40.7833 -74.5667 11° North 236 272 6,000  Level New York TRACON
09:38PM 40.8333 -74.5500 14° North 234 269 6,000  Level New York TRACON
09:39PM 40.9000 -74.5333 11° North 237 273 6,000  Level New York TRACON
09:40PM 40.9667 -74.5167 11° North 241 277 6,000 -60 Level New York TRACON
09:41PM 41.0167 -74.4500 45° Northeast 267 307 5,900 -480 Descending New York TRACON
09:42PM 41.0333 -74.3667 75° East 263 303 5,200 -480 Descending New York TRACON
09:43PM 41.0500 -74.2833 75° East 246 283 5,000 -300 Descending New York TRACON
09:44PM 41.0167 -74.2167 124° Southeast 225 259 4,700 -480 Descending New York TRACON
09:45PM 40.9833 -74.1333 118° Southeast 229 264 4,000 -540 Descending New York TRACON
09:46PM 40.9500 -74.0833 131° Southeast 180 207 3,700 -540 Descending New York TRACON
09:47PM 40.9000 -74.0667 166° South 166 191 3,000 -360 Descending New York TRACON
09:48PM 40.8500 -74.0667 180° South 162 186 3,000 -240 Level New York TRACON
09:49PM 40.8167 -74.0833 201° Southwest 151 174 2,600 -660 Descending New York TRACON
09:50PM 40.7833 -74.1167 217° Southwest 151 174 1,800 -780 Descending New York TRACON
09:51PM 40.7500 -74.1333 201° Southwest 126 145 1,100 -660 Descending New York TRACON
09:52PM 40.7167 -74.1500 201° Southwest 115 132 500 -720 Descending New York TRACON